createdAt,value
2022-09-27T00:01:12.830Z,3.48
2022-09-27T00:03:40.805Z,3.35
2022-09-27T00:06:32.908Z,3.48
2022-09-27T00:09:00.769Z,3.49
2022-09-27T00:11:34.964Z,3.54
2022-09-27T00:14:03.246Z,3.39
2022-09-27T00:16:33.903Z,3.44
2022-09-27T00:19:04.559Z,3.42
2022-09-27T00:21:32.398Z,3.43
2022-09-27T00:24:00.558Z,3.54
2022-09-27T00:26:28.298Z,3.56
2022-09-27T00:28:56.476Z,3.54
2022-09-27T00:31:32.410Z,3.48
2022-09-27T00:34:02.566Z,3.61
2022-09-27T00:36:31.653Z,3.57
2022-09-27T00:39:01.239Z,3.42
2022-09-27T00:41:33.824Z,3.37
2022-09-27T00:44:22.493Z,3.37
2022-09-27T00:47:03.081Z,3.47
2022-09-27T00:49:48.535Z,3.58
2022-09-27T00:52:24.713Z,3.47
2022-09-27T00:54:59.022Z,3.34
2022-09-27T00:57:26.669Z,3.18
2022-09-27T01:00:02.138Z,3.35
2022-09-27T01:02:33.504Z,3.23
2022-09-27T01:05:01.702Z,3.34
2022-09-27T01:07:30.416Z,3.45
2022-09-27T01:09:58.946Z,3.47
2022-09-27T01:12:26.380Z,3.41
2022-09-27T01:15:05.994Z,3.48
2022-09-27T01:18:07.445Z,3.66
2022-09-27T01:20:50.075Z,3.62
2022-09-27T01:23:56.668Z,3.58
2022-09-27T01:26:43.019Z,3.63
2022-09-27T01:29:20.620Z,3.64
2022-09-27T01:32:00.632Z,3.71
2022-09-27T01:34:50.933Z,3.63
2022-09-27T01:37:40.462Z,3.73
2022-09-27T01:40:25.333Z,3.69
2022-09-27T01:43:22.970Z,3.58
2022-09-27T01:46:03.032Z,3.55
2022-09-27T01:48:51.042Z,3.41
2022-09-27T01:51:32.072Z,3.42
2022-09-27T01:54:04.393Z,3.49
2022-09-27T01:57:11.132Z,3.53
2022-09-27T01:59:59.633Z,3.60
2022-09-27T02:03:17.833Z,3.66
2022-09-27T02:06:12.887Z,3.60
2022-09-27T02:08:59.749Z,3.50
2022-09-27T02:11:58.337Z,3.37
2022-09-27T02:14:35.327Z,3.47
2022-09-27T02:17:17.388Z,3.48
2022-09-27T02:20:13.992Z,3.60
2022-09-27T02:23:15.505Z,3.77
2022-09-27T02:25:46.313Z,3.57
2022-09-27T02:28:29.162Z,3.61
2022-09-27T02:30:57.211Z,3.43
2022-09-27T02:34:03.030Z,3.64
2022-09-27T02:36:31.986Z,3.51
2022-09-27T02:39:00.503Z,3.49
2022-09-27T02:41:30.122Z,3.42
2022-09-27T02:44:02.899Z,3.54
2022-09-27T02:46:31.960Z,3.54
2022-09-27T02:49:20.750Z,3.72
2022-09-27T02:52:09.432Z,3.88
2022-09-27T02:54:52.068Z,4.13
2022-09-27T02:57:55.627Z,4.06
2022-09-27T03:01:00.424Z,4.11
2022-09-27T03:03:50.013Z,4.15
2022-09-27T03:06:20.827Z,4.19
2022-09-27T03:08:48.875Z,4.21
2022-09-27T03:11:16.601Z,4.29
2022-09-27T03:14:01.818Z,4.23
2022-09-27T03:16:33.551Z,4.22
2022-09-27T03:19:25.097Z,4.27
2022-09-27T03:22:24.931Z,4.34
2022-09-27T03:24:53.082Z,4.37
2022-09-27T03:27:20.561Z,4.35
2022-09-27T03:29:48.066Z,4.34
2022-09-27T03:32:16.509Z,4.40
2022-09-27T03:35:02.526Z,4.54
2022-09-27T03:37:30.150Z,4.58
2022-09-27T03:39:57.796Z,4.48
2022-09-27T03:42:25.558Z,4.56
2022-09-27T03:44:54.103Z,4.61
2022-09-27T03:47:22.579Z,4.70
2022-09-27T03:49:50.180Z,4.77
2022-09-27T03:52:18.799Z,4.79
2022-09-27T03:54:46.532Z,4.81
2022-09-27T03:57:14.559Z,4.83
2022-09-27T03:59:41.995Z,5.00
2022-09-27T04:02:44.847Z,5.03
2022-09-27T04:05:26.891Z,5.08
2022-09-27T04:08:01.110Z,5.14
2022-09-27T04:10:31.222Z,5.15
2022-09-27T04:12:59.211Z,5.27
2022-09-27T04:15:31.073Z,5.31
2022-09-27T04:18:16.371Z,5.37
2022-09-27T04:21:04.137Z,5.42
2022-09-27T04:23:34.079Z,5.49
2022-09-27T04:26:01.774Z,5.43
2022-09-27T04:28:54.552Z,5.48
2022-09-27T04:31:23.352Z,5.54
2022-09-27T04:33:55.107Z,5.55
2022-09-27T04:36:27.824Z,5.60
2022-09-27T04:39:16.860Z,5.65
2022-09-27T04:41:45.803Z,5.71
2022-09-27T04:44:13.754Z,5.69
2022-09-27T04:46:46.954Z,5.71
2022-09-27T04:49:17.595Z,5.71
2022-09-27T04:51:45.873Z,5.48
2022-09-27T04:54:13.270Z,5.51
2022-09-27T04:56:52.091Z,5.56
2022-09-27T04:59:20.389Z,5.60
2022-09-27T05:01:48.125Z,5.57
2022-09-27T05:04:37.531Z,5.59
2022-09-27T05:07:07.180Z,5.62
2022-09-27T05:09:43.029Z,5.61
2022-09-27T05:12:10.590Z,5.61
2022-09-27T05:14:47.502Z,5.66
2022-09-27T05:17:34.363Z,5.67
2022-09-27T05:20:20.764Z,5.65
2022-09-27T05:22:59.294Z,5.66
2022-09-27T05:25:27.381Z,5.71
2022-09-27T05:27:54.875Z,5.66
2022-09-27T05:30:22.408Z,5.75
2022-09-27T05:32:58.873Z,5.79
2022-09-27T05:35:26.451Z,5.73
2022-09-27T05:38:00.546Z,5.94
2022-09-27T05:40:46.347Z,5.89
2022-09-27T05:43:14.658Z,5.95
2022-09-27T05:45:43.709Z,6.07
2022-09-27T05:48:14.457Z,6.11
2022-09-27T05:51:08.181Z,6.14
2022-09-27T05:53:39.493Z,6.20
2022-09-27T05:56:12.683Z,6.22
2022-09-27T05:59:00.368Z,6.24
2022-09-27T06:01:36.538Z,6.22
2022-09-27T06:04:36.498Z,6.19
2022-09-27T06:07:32.351Z,6.21
2022-09-27T06:10:01.675Z,6.26
2022-09-27T06:12:31.327Z,6.33
2022-09-27T06:15:00.137Z,6.39
2022-09-27T06:17:36.147Z,6.39
2022-09-27T06:20:11.546Z,6.41
2022-09-27T06:22:39.668Z,6.46
2022-09-27T06:25:08.350Z,6.54
2022-09-27T06:27:43.893Z,6.52
2022-09-27T06:30:20.909Z,6.55
2022-09-27T06:33:00.766Z,6.59
2022-09-27T06:35:50.975Z,6.59
2022-09-27T06:38:20.154Z,6.56
2022-09-27T06:41:03.560Z,6.64
2022-09-27T06:43:39.431Z,6.60
2022-09-27T06:46:32.714Z,6.61
2022-09-27T06:49:12.381Z,6.54
2022-09-27T06:51:41.339Z,6.59
2022-09-27T06:54:09.120Z,6.53
2022-09-27T06:56:37.470Z,6.56
2022-09-27T06:59:23.169Z,6.59
2022-09-27T07:01:53.144Z,6.54
2022-09-27T07:04:38.954Z,6.45
2022-09-27T07:07:14.712Z,6.46
2022-09-27T07:09:46.096Z,6.44
2022-09-27T07:12:14.204Z,6.47
2022-09-27T07:14:43.060Z,6.47
2022-09-27T07:17:16.416Z,6.42
2022-09-27T07:19:49.301Z,6.37
2022-09-27T07:22:16.818Z,6.35
2022-09-27T07:24:48.019Z,6.31
2022-09-27T07:27:16.485Z,6.26
2022-09-27T07:29:43.857Z,6.21
2022-09-27T07:32:11.399Z,6.11
2022-09-27T07:34:39.755Z,6.14
2022-09-27T07:37:07.894Z,6.13
2022-09-27T07:39:39.552Z,6.03
2022-09-27T07:42:07.117Z,6.03
2022-09-27T07:44:38.116Z,5.92
2022-09-27T07:47:19.814Z,5.84
2022-09-27T07:50:13.180Z,5.95
2022-09-27T07:52:48.635Z,5.93
2022-09-27T07:55:30.057Z,5.87
2022-09-27T07:58:07.455Z,6.03
2022-09-27T08:00:37.423Z,6.07
2022-09-27T08:03:08.658Z,6.08
2022-09-27T08:05:37.240Z,6.09
2022-09-27T08:08:05.704Z,6.10
2022-09-27T08:10:34.809Z,6.14
2022-09-27T08:13:05.070Z,6.16
2022-09-27T08:15:33.792Z,6.18
2022-09-27T08:18:02.670Z,6.18
2022-09-27T08:21:00.910Z,6.18
2022-09-27T08:23:46.971Z,6.13
2022-09-27T08:26:22.472Z,6.18
2022-09-27T08:29:13.038Z,6.15
2022-09-27T08:31:51.629Z,6.25
2022-09-27T08:34:20.051Z,6.33
2022-09-27T08:36:47.750Z,6.50
2022-09-27T08:39:15.730Z,6.65
2022-09-27T08:42:03.074Z,6.85
2022-09-27T08:45:12.065Z,7.10
2022-09-27T08:47:52.868Z,7.29
2022-09-27T08:50:39.675Z,7.49
2022-09-27T08:53:15.227Z,7.69
2022-09-27T08:55:48.398Z,7.83
2022-09-27T08:58:36.237Z,7.96
2022-09-27T09:01:16.975Z,8.02
2022-09-27T09:04:00.007Z,8.03
2022-09-27T09:06:40.215Z,8.08
2022-09-27T09:10:09.409Z,8.13
2022-09-27T09:13:01.299Z,8.07
2022-09-27T09:16:11.612Z,8.14
2022-09-27T09:19:05.501Z,8.05
2022-09-27T09:22:09.364Z,8.02
2022-09-27T09:24:46.611Z,7.98
2022-09-27T09:27:42.243Z,7.96
2022-09-27T09:30:22.653Z,7.98
2022-09-27T09:33:16.766Z,8.01
2022-09-27T09:35:59.374Z,7.89
2022-09-27T09:38:40.850Z,7.94
2022-09-27T09:41:28.054Z,8.02
2022-09-27T09:44:22.212Z,7.98
2022-09-27T09:46:56.163Z,7.99
2022-09-27T09:49:33.067Z,8.05
2022-09-27T09:52:09.095Z,8.11
2022-09-27T09:55:02.580Z,8.17
2022-09-27T09:58:04.604Z,8.29
2022-09-27T10:00:42.447Z,8.19
2022-09-27T10:03:10.464Z,8.21
2022-09-27T10:05:38.492Z,8.23
2022-09-27T10:08:23.208Z,8.17
2022-09-27T10:11:05.209Z,8.27
2022-09-27T10:13:48.543Z,8.31
2022-09-27T10:16:20.779Z,8.32
2022-09-27T10:18:51.246Z,8.25
2022-09-27T10:21:26.158Z,8.31
2022-09-27T10:24:17.738Z,8.27
2022-09-27T10:27:07.099Z,8.17
2022-09-27T10:29:39.361Z,8.19
2022-09-27T10:32:44.925Z,8.31
2022-09-27T10:35:40.131Z,8.20
2022-09-27T10:38:19.320Z,8.26
2022-09-27T10:40:52.588Z,8.16
2022-09-27T10:43:36.124Z,8.05
2022-09-27T10:46:33.185Z,8.12
2022-09-27T10:49:32.987Z,8.09
2022-09-27T10:52:24.434Z,8.18
2022-09-27T10:55:06.082Z,8.09
2022-09-27T10:57:34.380Z,8.00
2022-09-27T11:00:08.023Z,7.96
2022-09-27T11:02:38.085Z,7.91
2022-09-27T11:05:15.573Z,7.85
2022-09-27T11:07:54.471Z,7.91
2022-09-27T11:10:37.606Z,7.80
2022-09-27T11:13:18.498Z,7.87
2022-09-27T11:16:09.206Z,7.82
2022-09-27T11:18:49.182Z,7.77
2022-09-27T11:21:32.463Z,7.77
2022-09-27T11:24:48.291Z,7.81
2022-09-27T11:27:49.930Z,7.78
2022-09-27T11:30:24.366Z,7.69
2022-09-27T11:33:37.052Z,7.74
2022-09-27T11:36:21.843Z,7.68
2022-09-27T11:39:17.431Z,7.74
2022-09-27T11:41:59.645Z,7.69
2022-09-27T11:44:47.806Z,7.66
2022-09-27T11:47:54.819Z,7.63
2022-09-27T11:50:32.933Z,7.51
2022-09-27T11:53:33.830Z,7.60
2022-09-27T11:56:22.983Z,7.50
2022-09-27T11:59:05.773Z,7.48
2022-09-27T12:01:57.204Z,7.47
2022-09-27T12:04:27.974Z,7.42
2022-09-27T12:07:03.162Z,7.35
2022-09-27T12:09:43.735Z,7.43
2022-09-27T12:12:23.198Z,7.30
2022-09-27T12:15:14.830Z,7.28
2022-09-27T12:17:47.087Z,7.32
2022-09-27T12:20:19.716Z,7.34
2022-09-27T12:23:03.554Z,7.39
2022-09-27T12:26:41.372Z,7.40
2022-09-27T12:29:30.728Z,7.31
2022-09-27T12:32:31.751Z,7.31
2022-09-27T12:35:22.222Z,7.14
2022-09-27T12:38:05.885Z,7.06
2022-09-27T12:40:39.168Z,7.06
2022-09-27T12:43:21.958Z,7.14
2022-09-27T12:46:15.280Z,7.07
2022-09-27T12:49:05.941Z,7.15
2022-09-27T12:51:56.133Z,7.07
2022-09-27T12:54:39.215Z,7.02
2022-09-27T12:57:36.656Z,7.10
2022-09-27T13:00:07.241Z,6.94
2022-09-27T13:03:15.878Z,6.95
2022-09-27T13:06:06.208Z,7.02
2022-09-27T13:08:37.087Z,6.89
2022-09-27T13:11:26.560Z,7.00
2022-09-27T13:14:00.350Z,6.91
2022-09-27T13:16:28.757Z,6.77
2022-09-27T13:19:04.422Z,6.84
2022-09-27T13:21:50.619Z,6.92
2022-09-27T13:24:39.715Z,6.75
2022-09-27T13:27:30.405Z,6.87
2022-09-27T13:30:08.843Z,6.68
2022-09-27T13:32:41.140Z,6.74
2022-09-27T13:35:27.565Z,6.83
2022-09-27T13:38:24.429Z,6.79
2022-09-27T13:40:54.253Z,6.69
2022-09-27T13:43:59.744Z,6.74
2022-09-27T13:46:53.778Z,6.81
2022-09-27T13:49:33.882Z,6.97
2022-09-27T13:52:20.954Z,6.83
2022-09-27T13:54:59.553Z,6.68
2022-09-27T13:57:51.996Z,6.77
2022-09-27T14:00:25.990Z,6.69
2022-09-27T14:03:00.042Z,6.63
2022-09-27T14:05:58.695Z,6.67
2022-09-27T14:08:38.350Z,6.66
2022-09-27T14:11:13.626Z,6.58
2022-09-27T14:13:45.614Z,6.55
2022-09-27T14:16:18.606Z,6.51
2022-09-27T14:19:01.164Z,6.52
2022-09-27T14:21:40.326Z,6.58
2022-09-27T14:24:28.860Z,6.69
2022-09-27T14:27:23.751Z,6.75
2022-09-27T14:30:02.997Z,6.61
2022-09-27T14:32:35.290Z,6.56
2022-09-27T14:35:37.533Z,6.65
2022-09-27T14:38:35.987Z,6.57
2022-09-27T14:41:03.504Z,6.55
2022-09-27T14:43:34.621Z,6.52
2022-09-27T14:46:07.350Z,6.50
2022-09-27T14:48:36.471Z,6.46
2022-09-27T14:51:08.522Z,6.44
2022-09-27T14:53:57.430Z,6.54
2022-09-27T14:56:35.090Z,6.53
2022-09-27T14:59:14.728Z,6.53
2022-09-27T15:01:52.508Z,6.55
2022-09-27T15:04:21.831Z,6.44
2022-09-27T15:06:50.048Z,6.43
2022-09-27T15:09:18.883Z,6.42
2022-09-27T15:11:51.771Z,6.44
2022-09-27T15:14:21.138Z,6.38
2022-09-27T15:16:51.231Z,6.38
2022-09-27T15:19:28.467Z,6.40
2022-09-27T15:21:57.675Z,6.34
2022-09-27T15:24:40.447Z,6.42
2022-09-27T15:27:34.251Z,6.43
2022-09-27T15:30:01.961Z,6.25
2022-09-27T15:32:31.399Z,6.21
2022-09-27T15:35:08.844Z,6.24
2022-09-27T15:37:38.764Z,6.18
2022-09-27T15:40:19.273Z,6.20
2022-09-27T15:42:58.379Z,6.22
2022-09-27T15:45:34.890Z,6.15
2022-09-27T15:48:17.198Z,6.16
2022-09-27T15:50:44.893Z,6.04
2022-09-27T15:53:32.332Z,5.96
2022-09-27T15:56:01.475Z,6.00
2022-09-27T15:58:29.605Z,5.91
2022-09-27T16:01:05.898Z,5.92
2022-09-27T16:03:34.613Z,5.90
2022-09-27T16:06:04.968Z,5.85
2022-09-27T16:08:32.493Z,5.92
2022-09-27T16:11:05.896Z,5.92
2022-09-27T16:13:33.536Z,5.87
2022-09-27T16:16:03.645Z,5.96
2022-09-27T16:18:33.101Z,5.83
2022-09-27T16:21:00.826Z,5.81
2022-09-27T16:23:28.413Z,5.90
2022-09-27T16:25:55.925Z,5.81
2022-09-27T16:28:23.436Z,5.84
2022-09-27T16:30:51.036Z,5.90
2022-09-27T16:33:18.763Z,5.88
2022-09-27T16:35:46.651Z,5.87
2022-09-27T16:38:14.489Z,5.82
2022-09-27T16:40:42.174Z,5.83
2022-09-27T16:43:12.560Z,5.78
2022-09-27T16:45:40.007Z,5.82
2022-09-27T16:48:07.444Z,5.82
2022-09-27T16:50:53.330Z,5.83
2022-09-27T16:53:20.987Z,5.87
2022-09-27T16:55:48.431Z,5.84
2022-09-27T16:58:16.096Z,5.83
2022-09-27T17:00:44.376Z,5.84
2022-09-27T17:03:11.846Z,5.81
2022-09-27T17:05:40.412Z,5.78
2022-09-27T17:08:08.312Z,5.75
2022-09-27T17:10:36.103Z,5.74
2022-09-27T17:13:03.666Z,5.74
2022-09-27T17:15:31.749Z,5.71
2022-09-27T17:17:59.337Z,5.73
2022-09-27T17:20:27.072Z,5.76
2022-09-27T17:22:54.820Z,5.73
2022-09-27T17:25:22.454Z,5.58
2022-09-27T17:27:49.968Z,5.67
2022-09-27T17:30:17.687Z,5.69
2022-09-27T17:32:45.173Z,5.72
2022-09-27T17:35:12.734Z,5.70
2022-09-27T17:37:40.345Z,5.75
2022-09-27T17:40:08.344Z,5.67
2022-09-27T17:42:37.420Z,5.67
2022-09-27T17:45:05.073Z,5.66
2022-09-27T17:47:50.873Z,5.70
2022-09-27T17:50:28.979Z,5.64
2022-09-27T17:52:58.417Z,5.70
2022-09-27T17:55:27.326Z,5.70
2022-09-27T17:57:55.094Z,5.69
2022-09-27T18:00:23.133Z,5.71
2022-09-27T18:02:50.840Z,5.67
2022-09-27T18:05:21.397Z,5.70
2022-09-27T18:07:49.495Z,5.63
2022-09-27T18:10:18.181Z,5.65
2022-09-27T18:12:45.869Z,5.60
2022-09-27T18:15:13.533Z,5.65
2022-09-27T18:17:41.180Z,5.67
2022-09-27T18:20:10.780Z,5.62
2022-09-27T18:22:39.207Z,5.56
2022-09-27T18:25:07.238Z,5.65
2022-09-27T18:27:35.109Z,5.61
2022-09-27T18:30:03.659Z,5.61
2022-09-27T18:32:31.373Z,5.59
2022-09-27T18:34:58.889Z,5.48
2022-09-27T18:37:27.371Z,5.48
2022-09-27T18:39:55.864Z,5.53
2022-09-27T18:42:23.474Z,5.52
2022-09-27T18:44:51.581Z,5.55
2022-09-27T18:47:19.278Z,5.46
2022-09-27T18:49:46.803Z,5.35
2022-09-27T18:52:14.404Z,5.42
2022-09-27T18:54:42.237Z,5.41
2022-09-27T18:57:09.852Z,5.44
2022-09-27T18:59:37.971Z,5.42
2022-09-27T19:02:05.657Z,5.42
2022-09-27T19:04:33.278Z,5.39
2022-09-27T19:07:00.977Z,5.41
2022-09-27T19:09:28.838Z,5.40
2022-09-27T19:11:56.570Z,5.46
2022-09-27T19:14:24.297Z,5.47
2022-09-27T19:16:51.840Z,5.48
2022-09-27T19:19:20.425Z,5.51
2022-09-27T19:21:49.069Z,5.47
2022-09-27T19:24:16.924Z,5.45
2022-09-27T19:26:44.793Z,5.47
2022-09-27T19:29:13.426Z,5.47
2022-09-27T19:31:42.462Z,5.53
2022-09-27T19:34:11.490Z,5.52
2022-09-27T19:36:39.113Z,5.51
2022-09-27T19:39:06.832Z,5.56
2022-09-27T19:41:34.552Z,5.49
2022-09-27T19:44:02.270Z,5.48
2022-09-27T19:46:29.894Z,5.49
2022-09-27T19:48:57.917Z,5.42
2022-09-27T19:51:27.791Z,5.44
2022-09-27T19:53:55.492Z,5.42
2022-09-27T19:56:24.335Z,5.49
2022-09-27T19:58:52.395Z,5.51
2022-09-27T20:01:22.688Z,5.49
2022-09-27T20:03:53.606Z,5.52
2022-09-27T20:06:22.518Z,5.55
2022-09-27T20:08:50.222Z,5.49
2022-09-27T20:11:23.176Z,5.56
2022-09-27T20:13:53.564Z,5.58
2022-09-27T20:16:23.989Z,5.57
2022-09-27T20:18:54.354Z,5.59
2022-09-27T20:21:24.591Z,5.59
2022-09-27T20:23:54.488Z,5.62
2022-09-27T20:26:24.631Z,5.66
2022-09-27T20:28:57.413Z,5.68
2022-09-27T20:31:29.310Z,5.72
2022-09-27T20:33:57.272Z,5.62
2022-09-27T20:36:33.757Z,5.70
2022-09-27T20:39:03.988Z,5.68
2022-09-27T20:41:34.428Z,5.70
2022-09-27T20:44:05.879Z,5.69
2022-09-27T20:46:35.492Z,5.67
2022-09-27T20:49:06.138Z,5.71
2022-09-27T20:51:35.328Z,5.67
2022-09-27T20:54:04.668Z,5.64
2022-09-27T20:56:38.293Z,5.74
2022-09-27T20:59:18.203Z,5.59
2022-09-27T21:01:48.063Z,5.69
2022-09-27T21:04:17.589Z,5.72
2022-09-27T21:06:46.441Z,5.69
2022-09-27T21:09:21.396Z,5.68
2022-09-27T21:11:52.253Z,5.69
2022-09-27T21:14:20.120Z,5.63
2022-09-27T21:16:47.594Z,5.54
2022-09-27T21:19:15.179Z,5.53
2022-09-27T21:21:42.886Z,5.57
2022-09-27T21:24:10.741Z,5.61
2022-09-27T21:26:38.226Z,5.61
2022-09-27T21:29:07.978Z,5.63
2022-09-27T21:31:36.447Z,5.56
2022-09-27T21:34:05.681Z,5.56
2022-09-27T21:36:35.893Z,5.57
2022-09-27T21:39:05.070Z,5.54
2022-09-27T21:41:32.677Z,5.52
2022-09-27T21:44:03.540Z,5.49
2022-09-27T21:46:31.052Z,5.49
2022-09-27T21:49:02.098Z,5.46
2022-09-27T21:51:37.277Z,5.47
2022-09-27T21:54:08.034Z,5.51
2022-09-27T21:56:38.611Z,5.48
2022-09-27T21:59:07.723Z,5.45
2022-09-27T22:01:35.894Z,5.45
2022-09-27T22:04:06.736Z,5.52
2022-09-27T22:06:37.026Z,5.56
2022-09-27T22:09:08.340Z,5.36
2022-09-27T22:11:40.052Z,5.52
2022-09-27T22:14:08.175Z,5.55
2022-09-27T22:16:36.212Z,5.36
2022-09-27T22:19:04.505Z,5.27
2022-09-27T22:21:35.737Z,5.40
2022-09-27T22:24:11.712Z,5.42
2022-09-27T22:26:40.858Z,5.40
2022-09-27T22:29:08.912Z,5.37
2022-09-27T22:31:37.690Z,5.40
2022-09-27T22:34:07.817Z,5.41
2022-09-27T22:36:35.768Z,5.30
2022-09-27T22:39:03.666Z,5.27
2022-09-27T22:41:31.236Z,5.29
2022-09-27T22:43:58.593Z,5.25
2022-09-27T22:46:26.214Z,5.22
2022-09-27T22:48:53.919Z,5.22
2022-09-27T22:51:21.278Z,5.18
2022-09-27T22:53:48.815Z,5.18
2022-09-27T22:56:20.747Z,5.27
2022-09-27T22:58:49.504Z,5.22
2022-09-27T23:01:22.672Z,5.24
2022-09-27T23:03:52.092Z,5.21
2022-09-27T23:06:21.944Z,5.16
2022-09-27T23:08:50.150Z,5.02
2022-09-27T23:11:21.049Z,5.09
2022-09-27T23:13:50.578Z,5.05
2022-09-27T23:16:20.657Z,5.10
2022-09-27T23:18:48.223Z,5.07
2022-09-27T23:21:16.420Z,5.08
2022-09-27T23:23:46.368Z,5.06
2022-09-27T23:26:16.420Z,5.03
2022-09-27T23:28:44.565Z,4.94
2022-09-27T23:31:17.196Z,5.05
2022-09-27T23:33:48.692Z,4.96
2022-09-27T23:36:22.927Z,4.92
2022-09-27T23:38:50.678Z,4.87
2022-09-27T23:41:18.550Z,4.87
2022-09-27T23:43:46.709Z,4.85
2022-09-27T23:46:14.923Z,4.84
2022-09-27T23:48:42.944Z,4.80
2022-09-27T23:51:12.041Z,4.85
2022-09-27T23:53:40.285Z,4.85
2022-09-27T23:56:18.446Z,4.85
2022-09-27T23:58:46.861Z,4.81
